createdAt,value
2022-08-24T00:01:08.681Z,16.60
2022-08-24T00:06:05.008Z,16.57
2022-08-24T00:11:05.349Z,16.45
2022-08-24T00:16:03.546Z,16.38
2022-08-24T00:21:02.756Z,17.31
2022-08-24T00:26:01.914Z,16.64
2022-08-24T00:31:01.102Z,16.83
2022-08-24T00:36:02.323Z,19.40
2022-08-24T00:41:00.591Z,20.38
2022-08-24T00:45:58.860Z,20.02
2022-08-24T00:50:58.098Z,19.65
2022-08-24T00:55:57.434Z,21.31
2022-08-24T01:00:56.727Z,21.24
2022-08-24T01:05:54.898Z,21.90
2022-08-24T01:10:55.108Z,20.55
2022-08-24T01:15:54.340Z,19.80
2022-08-24T01:20:53.577Z,18.11
2022-08-24T01:25:52.791Z,17.99
2022-08-24T01:30:53.112Z,17.40
2022-08-24T01:35:52.422Z,17.31
2022-08-24T01:40:50.805Z,17.22
2022-08-24T01:45:50.963Z,17.34
2022-08-24T01:50:49.114Z,17.66
2022-08-24T01:55:48.250Z,17.75
2022-08-24T02:00:46.578Z,16.89
2022-08-24T02:05:48.920Z,17.21
2022-08-24T02:10:52.945Z,18.12
2022-08-24T02:15:48.646Z,17.14
2022-08-24T02:20:44.827Z,16.71
2022-08-24T02:25:43.499Z,16.75
2022-08-24T02:30:43.889Z,16.45
2022-08-24T02:35:45.992Z,16.28
2022-08-24T02:40:43.054Z,16.48
2022-08-24T02:45:41.545Z,16.12
2022-08-24T02:50:41.468Z,15.83
2022-08-24T02:55:38.392Z,16.04
2022-08-24T03:00:39.601Z,15.49
2022-08-24T03:05:39.739Z,15.65
2022-08-24T03:10:37.927Z,15.69
2022-08-24T03:15:36.161Z,15.49
2022-08-24T03:20:36.373Z,15.43
2022-08-24T03:25:34.556Z,14.88
2022-08-24T03:30:34.762Z,14.80
2022-08-24T03:35:32.924Z,14.98
2022-08-24T03:40:33.098Z,15.09
2022-08-24T03:45:32.381Z,15.03
2022-08-24T03:50:32.551Z,16.02
2022-08-24T03:55:29.686Z,15.31
2022-08-24T04:00:29.019Z,14.73
2022-08-24T04:05:28.000Z,14.27
2022-08-24T04:10:28.216Z,14.91
2022-08-24T04:15:26.360Z,14.73
2022-08-24T04:20:25.574Z,14.47
2022-08-24T04:25:28.729Z,14.64
2022-08-24T04:30:24.135Z,14.54
2022-08-24T04:35:24.326Z,14.75
2022-08-24T04:40:23.600Z,14.83
2022-08-24T04:45:22.811Z,14.68
2022-08-24T04:50:21.988Z,14.65
2022-08-24T04:55:20.184Z,14.69
2022-08-24T05:00:19.387Z,14.99
2022-08-24T05:05:18.603Z,14.24
2022-08-24T05:10:17.780Z,14.72
2022-08-24T05:15:17.025Z,14.35
2022-08-24T05:20:16.249Z,14.21
2022-08-24T05:25:14.419Z,14.84
2022-08-24T05:30:14.704Z,14.96
2022-08-24T05:35:15.038Z,14.70
2022-08-24T05:40:13.401Z,15.31
2022-08-24T05:45:14.570Z,15.43
2022-08-24T05:50:11.885Z,15.82
2022-08-24T05:55:11.204Z,16.14
2022-08-24T06:00:10.535Z,16.15
2022-08-24T06:05:10.846Z,16.52
2022-08-24T06:10:34.820Z,16.34
2022-08-24T06:15:08.379Z,16.20
2022-08-24T06:20:08.504Z,16.68
2022-08-24T06:25:06.809Z,17.22
2022-08-24T06:30:07.121Z,16.89
2022-08-24T06:35:07.446Z,17.03
2022-08-24T06:40:04.694Z,17.31
2022-08-24T06:45:03.929Z,17.34
2022-08-24T06:50:03.085Z,18.23
2022-08-24T06:55:03.242Z,18.39
2022-08-24T07:00:01.431Z,18.63
2022-08-24T07:05:00.605Z,18.75
2022-08-24T07:09:59.727Z,18.94
2022-08-24T07:14:59.991Z,19.13
2022-08-24T07:19:59.321Z,19.26
2022-08-24T07:24:57.604Z,19.59
2022-08-24T07:30:23.174Z,19.69
2022-08-24T07:34:58.303Z,19.66
2022-08-24T07:39:55.460Z,19.63
2022-08-24T07:44:55.561Z,20.42
2022-08-24T07:49:53.882Z,20.35
2022-08-24T07:54:53.201Z,20.28
2022-08-24T07:59:52.512Z,20.80
2022-08-24T08:04:51.765Z,20.80
2022-08-24T08:09:50.074Z,20.72
2022-08-24T08:14:51.368Z,20.91
2022-08-24T08:19:49.611Z,20.91
2022-08-24T08:24:49.924Z,20.88
2022-08-24T08:29:48.205Z,20.92
2022-08-24T08:34:49.482Z,21.06
2022-08-24T08:39:49.944Z,21.38
2022-08-24T08:44:48.081Z,21.50
2022-08-24T08:49:46.181Z,21.75
2022-08-24T08:54:44.516Z,21.80
2022-08-24T08:59:44.137Z,22.06
2022-08-24T09:04:43.010Z,22.24
2022-08-24T09:09:42.228Z,22.21
2022-08-24T09:14:42.436Z,22.35
2022-08-24T09:19:40.630Z,22.25
2022-08-24T09:24:38.843Z,22.49
2022-08-24T09:29:40.069Z,22.25
2022-08-24T09:34:37.368Z,22.33
2022-08-24T09:39:37.535Z,22.47
2022-08-24T09:44:37.722Z,22.67
2022-08-24T09:49:35.894Z,22.75
2022-08-24T09:54:36.097Z,22.90
2022-08-24T09:59:35.291Z,22.79
2022-08-24T10:04:35.604Z,22.86
2022-08-24T10:09:32.662Z,22.98
2022-08-24T10:14:31.843Z,22.94
2022-08-24T10:19:31.023Z,23.12
2022-08-24T10:24:31.203Z,23.19
2022-08-24T10:29:30.353Z,23.22
2022-08-24T10:34:28.530Z,23.51
2022-08-24T10:39:28.693Z,23.54
2022-08-24T10:44:28.882Z,23.61
2022-08-24T10:49:27.332Z,23.70
2022-08-24T10:54:26.302Z,23.60
2022-08-24T10:59:25.469Z,23.72
2022-08-24T11:04:24.687Z,23.83
2022-08-24T11:09:24.847Z,23.83
2022-08-24T11:14:23.046Z,23.93
2022-08-24T11:19:21.228Z,23.95
2022-08-24T11:24:23.394Z,23.98
2022-08-24T11:29:21.558Z,24.20
2022-08-24T11:34:19.721Z,24.27
2022-08-24T11:39:17.903Z,24.34
2022-08-24T11:44:17.112Z,24.45
2022-08-24T11:49:17.335Z,24.64
2022-08-24T11:54:16.549Z,24.76
2022-08-24T11:59:14.776Z,24.77
2022-08-24T12:04:15.092Z,24.84
2022-08-24T12:09:13.393Z,24.90
2022-08-24T12:14:13.713Z,25.14
2022-08-24T12:19:13.005Z,25.13
2022-08-24T12:24:11.282Z,25.21
2022-08-24T12:29:11.591Z,25.27
2022-08-24T12:34:09.914Z,25.25
2022-08-24T12:39:09.202Z,25.40
2022-08-24T12:44:09.501Z,25.54
2022-08-24T12:49:08.849Z,25.50
2022-08-24T12:54:06.985Z,25.72
2022-08-24T12:59:06.352Z,25.54
2022-08-24T13:04:05.525Z,25.62
2022-08-24T13:09:04.678Z,25.38
2022-08-24T13:14:04.020Z,25.73
2022-08-24T13:19:04.167Z,25.75
2022-08-24T13:24:02.454Z,25.80
2022-08-24T13:29:02.723Z,25.79
2022-08-24T13:34:00.996Z,25.70
2022-08-24T13:39:01.322Z,25.92
2022-08-24T13:43:59.613Z,25.87
2022-08-24T13:48:59.903Z,25.83
2022-08-24T13:53:59.196Z,25.94
2022-08-24T13:58:58.492Z,25.91
2022-08-24T14:03:56.755Z,26.06
2022-08-24T14:08:56.101Z,26.02
2022-08-24T14:13:55.457Z,26.06
2022-08-24T14:18:55.517Z,25.99
2022-08-24T14:23:55.760Z,26.21
2022-08-24T14:28:52.870Z,26.33
2022-08-24T14:33:52.198Z,26.29
2022-08-24T14:38:55.391Z,26.30
2022-08-24T14:43:50.499Z,26.25
2022-08-24T14:48:49.821Z,26.33
2022-08-24T14:53:49.981Z,26.44
2022-08-24T14:58:48.297Z,26.51
2022-08-24T15:03:47.626Z,26.50
2022-08-24T15:08:46.979Z,26.54
2022-08-24T15:13:46.252Z,26.52
2022-08-24T15:18:45.436Z,26.73
2022-08-24T15:23:44.626Z,26.57
2022-08-24T15:28:55.408Z,26.66
2022-08-24T15:33:43.089Z,26.62
2022-08-24T15:38:43.257Z,26.73
2022-08-24T15:43:41.456Z,26.81
2022-08-24T15:48:42.621Z,26.72
2022-08-24T15:53:40.784Z,26.82
2022-08-24T15:58:38.964Z,26.73
2022-08-24T16:03:39.142Z,26.70
2022-08-24T16:08:40.427Z,26.75
2022-08-24T16:13:37.595Z,26.80
2022-08-24T16:18:35.785Z,26.88
2022-08-24T16:23:34.957Z,26.84
2022-08-24T16:28:34.195Z,26.76
2022-08-24T16:33:33.354Z,26.84
2022-08-24T16:38:34.551Z,26.70
2022-08-24T16:43:31.722Z,26.62
2022-08-24T16:48:31.931Z,26.40
2022-08-24T16:53:30.118Z,26.26
2022-08-24T16:58:31.358Z,26.12
2022-08-24T17:03:28.594Z,25.97
2022-08-24T17:08:27.810Z,25.75
2022-08-24T17:13:48.474Z,25.65
2022-08-24T17:18:28.274Z,25.45
2022-08-24T17:23:26.409Z,25.27
2022-08-24T17:28:24.610Z,25.13
2022-08-24T17:33:22.856Z,24.88
2022-08-24T17:38:23.101Z,24.73
2022-08-24T17:43:22.344Z,24.53
2022-08-24T17:48:22.579Z,24.46
2022-08-24T17:53:20.760Z,24.46
2022-08-24T17:58:19.948Z,24.34
2022-08-24T18:03:20.141Z,24.28
2022-08-24T18:08:20.321Z,24.28
2022-08-24T18:13:18.595Z,24.37
2022-08-24T18:18:17.790Z,24.03
2022-08-24T18:23:17.489Z,24.08
2022-08-24T18:28:16.272Z,23.61
2022-08-24T18:33:13.443Z,23.35
2022-08-24T18:38:15.638Z,22.98
2022-08-24T18:43:12.859Z,22.82
2022-08-24T18:48:13.220Z,22.64
2022-08-24T18:53:11.231Z,23.43
2022-08-24T18:58:11.427Z,22.83
2022-08-24T19:03:09.811Z,22.55
2022-08-24T19:08:11.957Z,22.40
2022-08-24T19:13:08.226Z,22.25
2022-08-24T19:18:07.570Z,22.12
2022-08-24T19:23:07.768Z,22.09
2022-08-24T19:28:06.990Z,21.91
2022-08-24T19:33:05.993Z,21.77
2022-08-24T19:38:05.354Z,21.71
2022-08-24T19:43:03.752Z,21.69
2022-08-24T19:48:03.005Z,21.47
2022-08-24T19:53:02.246Z,21.62
2022-08-24T19:58:03.279Z,21.52
2022-08-24T20:03:00.509Z,21.31
2022-08-24T20:07:59.797Z,21.10
2022-08-24T20:13:00.078Z,20.91
2022-08-24T20:17:59.315Z,20.94
2022-08-24T20:22:58.502Z,20.80
2022-08-24T20:28:18.514Z,20.72
2022-08-24T20:32:57.991Z,20.50
2022-08-24T20:37:56.449Z,20.58
2022-08-24T20:42:56.514Z,20.33
2022-08-24T20:47:54.723Z,20.41
2022-08-24T20:52:53.875Z,20.28
2022-08-24T20:57:53.171Z,20.50
2022-08-24T21:02:51.362Z,20.18
2022-08-24T21:07:51.721Z,19.94
2022-08-24T21:12:49.928Z,19.63
2022-08-24T21:17:49.082Z,19.80
2022-08-24T21:22:48.233Z,20.08
2022-08-24T21:27:47.395Z,19.83
2022-08-24T21:32:46.549Z,19.22
2022-08-24T21:37:45.716Z,19.13
2022-08-24T21:42:46.010Z,19.88
2022-08-24T21:47:44.303Z,19.65
2022-08-24T21:52:43.671Z,19.68
2022-08-24T21:57:43.770Z,19.66
2022-08-24T22:02:42.214Z,19.80
2022-08-24T22:07:41.397Z,19.54
2022-08-24T22:12:41.534Z,19.25
2022-08-24T22:17:41.667Z,18.95
2022-08-24T22:22:39.019Z,19.06
2022-08-24T22:27:39.161Z,18.85
2022-08-24T22:32:38.541Z,18.84
2022-08-24T22:37:37.864Z,18.90
2022-08-24T22:42:36.829Z,18.63
2022-08-24T22:47:37.132Z,18.27
2022-08-24T22:52:34.419Z,18.44
2022-08-24T22:57:34.592Z,18.41
2022-08-24T23:02:32.740Z,18.63
2022-08-24T23:07:31.888Z,18.70
2022-08-24T23:12:31.259Z,18.48
2022-08-24T23:17:31.437Z,18.66
2022-08-24T23:22:30.528Z,18.70
2022-08-24T23:27:37.653Z,19.32
2022-08-24T23:32:28.018Z,19.16
2022-08-24T23:37:27.352Z,20.16
2022-08-24T23:42:26.721Z,21.67
2022-08-24T23:47:26.830Z,21.61
2022-08-24T23:52:28.187Z,19.87
2022-08-24T23:57:26.437Z,18.62
